Terminal Aerodrome Forecast
Issued by NWS

Home | Current Version | Previous Version | Text Only | Print | Product List | Glossary On
Versions: 1 2 3 4 5 6 7 8 9 10 11 12
000
FTUS45 KPIH 062320
TAFSUN
TAF
KSUN 062320Z 0700/0724 24008KT P6SM FEW060 SCT110 SCT200
     FM070200 VRB06KT P6SM FEW050 SCT090 SCT200
     FM071200 34010KT P6SM VCSH BKN050 BKN090
     FM071500 VRB05KT P6SM -SHRA BKN025 BKN050 OVC120
      AMD LTD TO CLD VIS AND WIND 0705/0713=

USA.gov is the U.S. government's official web portal to all federal, state and local government web resources and services.